Time;durP1;ratioP1;P1;durP2;ratioP2;P2;SDS_P1;SDS_P2;PMS_P1;PMS_P2;Temp;Humidity;BMP_temperature;BMP_pressure;BME280_temperature;BME280_humidity;BME280_pressure;Samples;Min_cycle;Max_cycle;Signal;HPM_P1;HPM_P2
2021/04/08 00:01:05;;;;;;;12.00;5.20;;;;;;;;;;4972805;28;20877;-63
2021/04/08 00:03:32;;;;;;;10.30;4.10;;;;;;;;;;4956659;28;20979;-63
2021/04/08 00:05:59;;;;;;;9.73;4.50;;;;;;;;;;4955095;28;21043;-63
2021/04/08 00:08:25;;;;;;;12.23;4.00;;;;;;;;;;4955547;28;20470;-62
2021/04/08 00:10:52;;;;;;;10.63;4.47;;;;;;;;;;4961965;28;20483;-62
2021/04/08 00:13:18;;;;;;;11.73;5.33;;;;;;;;;;4960646;28;20505;-61
2021/04/08 00:15:45;;;;;;;12.53;4.83;;;;;;;;;;4968201;28;20474;-63
2021/04/08 00:18:13;;;;;;;7.27;4.27;;;;;;;;;;4959552;28;20471;-62
2021/04/08 00:20:40;;;;;;;15.53;5.00;;;;;;;;;;4964113;28;20483;-63
2021/04/08 00:23:06;;;;;;;11.63;3.90;;;;;;;;;;4967618;28;20507;-62
2021/04/08 00:25:33;;;;;;;18.37;5.43;;;;;;;;;;4962963;28;20471;-61
2021/04/08 00:27:59;;;;;;;13.63;4.60;;;;;;;;;;4956632;28;20535;-62
2021/04/08 00:30:26;;;;;;;12.20;4.20;;;;;;;;;;4950686;28;20929;-63
2021/04/08 00:32:53;;;;;;;10.77;4.60;;;;;;;;;;4955084;28;20464;-62
2021/04/08 00:35:20;;;;;;;8.90;4.10;;;;;;;;;;4963609;28;20463;-63
2021/04/08 00:37:47;;;;;;;11.07;4.90;;;;;;;;;;4955541;28;20956;-63
2021/04/08 00:40:14;;;;;;;12.23;4.43;;;;;;;;;;4957689;28;20487;-63
2021/04/08 00:42:41;;;;;;;13.10;4.73;;;;;;;;;;4959355;28;20464;-62
2021/04/08 00:45:08;;;;;;;11.97;5.03;;;;;;;;;;4961884;28;20491;-62
2021/04/08 00:47:35;;;;;;;12.50;4.80;;;;;;;;;;4970702;28;20467;-62
2021/04/08 00:50:02;;;;;;;15.77;4.37;;;;;;;;;;4955550;28;20472;-63
2021/04/08 00:52:29;;;;;;;12.80;5.00;;;;;;;;;;4962903;28;20471;-62
2021/04/08 00:54:56;;;;;;;14.53;5.20;;;;;;;;;;4949889;28;20470;-62
2021/04/08 00:57:23;;;;;;;8.70;4.27;;;;;;;;;;4964388;28;20456;-62
2021/04/08 00:59:51;;;;;;;14.07;5.57;;;;;;;;;;4958459;28;20487;-62
2021/04/08 01:02:18;;;;;;;12.63;5.10;;;;;;;;;;4962678;28;20473;-62
2021/04/08 01:04:45;;;;;;;18.83;5.17;;;;;;;;;;4969519;28;20574;-63
2021/04/08 01:07:11;;;;;;;12.00;4.73;;;;;;;;;;4956952;28;20513;-62
2021/04/08 01:09:39;;;;;;;11.60;5.30;;;;;;;;;;4939978;28;20578;-63
2021/04/08 01:12:06;;;;;;;11.23;4.60;;;;;;;;;;4963030;28;20523;-62
2021/04/08 01:14:32;;;;;;;12.40;4.47;;;;;;;;;;4953417;28;20539;-63
2021/04/08 01:17:00;;;;;;;13.00;4.27;;;;;;;;;;4955589;28;20464;-62
2021/04/08 01:19:39;;;;;;;7.80;3.70;;;;;;;;;;4955822;28;20484;-63
2021/04/08 01:22:13;;;;;;;8.60;4.37;;;;;;;;;;4955861;28;20448;-63
2021/04/08 01:24:49;;;;;;;13.77;5.23;;;;;;;;;;4944660;28;20882;-62
2021/04/08 01:27:23;;;;;;;16.00;5.37;;;;;;;;;;4954323;28;21063;-62
2021/04/08 01:29:56;;;;;;;10.97;4.73;;;;;;;;;;4963073;28;20528;-63
2021/04/08 01:32:26;;;;;;;14.83;5.23;;;;;;;;;;4965450;28;20500;-63
2021/04/08 01:34:54;;;;;;;12.67;5.07;;;;;;;;;;4963973;28;20860;-63
2021/04/08 01:37:25;;;;;;;14.10;5.23;;;;;;;;;;4967531;28;21023;-62
2021/04/08 01:39:53;;;;;;;7.67;4.23;;;;;;;;;;4973089;28;21074;-62
2021/04/08 01:42:19;;;;;;;6.93;4.33;;;;;;;;;;4967370;28;20843;-62
2021/04/08 01:44:46;;;;;;;10.83;4.20;;;;;;;;;;4956408;28;20547;-62
2021/04/08 01:47:14;;;;;;;11.33;5.10;;;;;;;;;;4978475;28;20914;-63
2021/04/08 01:49:43;;;;;;;10.47;4.87;;;;;;;;;;4956255;28;20496;-62
2021/04/08 01:52:14;;;;;;;10.27;4.27;;;;;;;;;;4968501;28;20970;-64
2021/04/08 01:54:42;;;;;;;13.80;4.47;;;;;;;;;;4970255;28;20467;-62
2021/04/08 01:57:09;;;;;;;10.53;4.33;;;;;;;;;;4963805;29;20456;-62
2021/04/08 01:59:36;;;;;;;9.17;5.00;;;;;;;;;;4962456;28;20544;-63
2021/04/08 02:02:04;;;;;;;11.40;4.30;;;;;;;;;;4965478;28;20899;-62
2021/04/08 02:04:31;;;;;;;15.60;4.77;;;;;;;;;;4975372;28;20508;-63
2021/04/08 02:07:00;;;;;;;5.53;3.83;;;;;;;;;;4965692;28;20497;-63
2021/04/08 02:09:27;;;;;;;9.40;3.53;;;;;;;;;;4957109;28;20476;-62
2021/04/08 02:11:54;;;;;;;4.13;3.07;;;;;;;;;;4962688;28;20504;-63
2021/04/08 02:14:22;;;;;;;8.17;3.23;;;;;;;;;;4959114;28;20459;-65
2021/04/08 02:16:50;;;;;;;11.97;4.50;;;;;;;;;;4954881;28;20472;-62
2021/04/08 02:19:18;;;;;;;7.90;3.40;;;;;;;;;;4956892;28;21000;-62
2021/04/08 02:21:46;;;;;;;5.53;3.13;;;;;;;;;;4963799;28;20468;-62
2021/04/08 02:24:14;;;;;;;7.93;3.77;;;;;;;;;;4954744;28;20484;-63
2021/04/08 02:26:41;;;;;;;8.43;3.20;;;;;;;;;;4960857;28;20559;-62
2021/04/08 02:29:09;;;;;;;8.27;4.20;;;;;;;;;;4967885;28;20495;-63
2021/04/08 02:31:37;;;;;;;9.57;3.80;;;;;;;;;;4963693;28;20460;-62
2021/04/08 02:34:05;;;;;;;7.00;4.10;;;;;;;;;;4955738;29;20745;-62
2021/04/08 02:36:32;;;;;;;11.73;4.17;;;;;;;;;;4966462;28;20553;-63
2021/04/08 02:38:58;;;;;;;4.50;3.57;;;;;;;;;;4965134;28;21275;-64
2021/04/08 02:41:26;;;;;;;4.67;3.57;;;;;;;;;;4964015;28;20536;-63
2021/04/08 02:43:53;;;;;;;6.90;3.83;;;;;;;;;;4983651;28;20933;-64
2021/04/08 02:46:19;;;;;;;7.30;3.80;;;;;;;;;;4978535;28;20540;-62
2021/04/08 02:48:46;;;;;;;14.10;3.90;;;;;;;;;;4975201;28;20546;-63
2021/04/08 02:51:15;;;;;;;10.07;4.20;;;;;;;;;;4985375;28;20788;-63
2021/04/08 02:53:45;;;;;;;11.17;4.47;;;;;;;;;;4970378;28;20457;-65
2021/04/08 02:56:14;;;;;;;9.53;3.40;;;;;;;;;;4968190;28;20496;-64
2021/04/08 02:58:43;;;;;;;10.20;4.63;;;;;;;;;;4969147;28;20467;-63
2021/04/08 03:01:11;;;;;;;12.87;4.40;;;;;;;;;;4969224;28;20456;-63
2021/04/08 03:03:40;;;;;;;9.80;4.63;;;;;;;;;;4969851;28;20579;-63
2021/04/08 03:06:08;;;;;;;4.47;3.40;;;;;;;;;;4965200;28;20459;-63
2021/04/08 03:08:35;;;;;;;10.93;3.97;;;;;;;;;;4963596;28;20616;-64
2021/04/08 03:11:03;;;;;;;7.17;3.50;;;;;;;;;;4954922;28;20476;-63
2021/04/08 03:13:31;;;;;;;8.90;4.03;;;;;;;;;;4954594;28;20486;-63
2021/04/08 03:16:00;;;;;;;9.87;3.20;;;;;;;;;;4952651;28;20948;-62
2021/04/08 03:18:27;;;;;;;8.47;3.80;;;;;;;;;;4953814;28;20478;-63
2021/04/08 03:20:54;;;;;;;7.83;3.90;;;;;;;;;;4960602;28;20491;-63
2021/04/08 03:23:23;;;;;;;11.23;3.73;;;;;;;;;;4954699;28;21211;-62
2021/04/08 03:25:50;;;;;;;7.70;3.50;;;;;;;;;;4952675;28;20577;-63
2021/04/08 03:28:17;;;;;;;10.23;3.30;;;;;;;;;;4958875;28;20468;-62
2021/04/08 03:30:44;;;;;;;10.40;3.97;;;;;;;;;;5013968;23;20499;-64
2021/04/08 03:33:13;;;;;;;8.00;3.30;;;;;;;;;;5034259;28;20791;-67
2021/04/08 03:35:42;;;;;;;8.70;3.50;;;;;;;;;;5031222;28;20465;-67
2021/04/08 03:38:09;;;;;;;7.80;4.30;;;;;;;;;;5022962;28;20466;-65
2021/04/08 03:40:35;;;;;;;12.43;4.93;;;;;;;;;;5011842;28;20484;-64
2021/04/08 03:43:02;;;;;;;6.33;3.50;;;;;;;;;;5027383;28;20473;-63
2021/04/08 03:45:29;;;;;;;5.63;3.57;;;;;;;;;;5030176;28;20500;-64
2021/04/08 03:48:00;;;;;;;9.57;4.43;;;;;;;;;;5029346;28;20547;-65
2021/04/08 03:50:28;;;;;;;6.80;3.93;;;;;;;;;;5025115;28;20943;-64
2021/04/08 03:52:55;;;;;;;6.33;3.00;;;;;;;;;;5024653;28;20465;-64
2021/04/08 03:55:23;;;;;;;7.17;4.07;;;;;;;;;;5021562;28;20559;-64
2021/04/08 03:57:51;;;;;;;6.83;3.53;;;;;;;;;;5020643;28;20551;-64
2021/04/08 04:00:19;;;;;;;10.23;3.50;;;;;;;;;;5027365;28;20920;-64
2021/04/08 04:02:47;;;;;;;7.03;4.00;;;;;;;;;;5033223;28;20518;-65
2021/04/08 04:05:14;;;;;;;7.13;4.30;;;;;;;;;;5034495;28;20492;-63
2021/04/08 04:07:48;;;;;;;12.27;4.60;;;;;;;;;;5033574;28;20469;-64
2021/04/08 04:10:15;;;;;;;10.27;4.67;;;;;;;;;;5033332;28;20969;-64
2021/04/08 04:12:42;;;;;;;10.77;4.90;;;;;;;;;;5033154;28;20472;-64
2021/04/08 04:15:10;;;;;;;7.80;4.50;;;;;;;;;;5033655;28;21032;-64
2021/04/08 04:17:36;;;;;;;11.87;4.67;;;;;;;;;;5029650;28;20464;-64
2021/04/08 04:20:04;;;;;;;14.50;4.67;;;;;;;;;;5032500;28;20892;-64
2021/04/08 04:22:32;;;;;;;10.40;4.63;;;;;;;;;;5019907;28;20466;-64
2021/04/08 04:25:00;;;;;;;8.60;4.83;;;;;;;;;;5030855;28;20492;-64
2021/04/08 04:27:27;;;;;;;10.43;5.13;;;;;;;;;;5015089;28;20461;-64
2021/04/08 04:29:53;;;;;;;11.50;4.87;;;;;;;;;;5015686;28;20941;-65
2021/04/08 04:32:20;;;;;;;8.93;5.43;;;;;;;;;;5033027;28;20548;-65
2021/04/08 04:34:47;;;;;;;11.33;5.10;;;;;;;;;;5029210;28;20555;-64
2021/04/08 04:37:13;;;;;;;7.83;4.23;;;;;;;;;;5031015;28;20591;-64
2021/04/08 04:39:40;;;;;;;11.43;5.20;;;;;;;;;;5017083;28;20457;-64
2021/04/08 04:42:08;;;;;;;5.83;4.37;;;;;;;;;;5023451;28;20480;-64
2021/04/08 04:44:35;;;;;;;9.60;4.63;;;;;;;;;;5013996;28;20485;-64
2021/04/08 04:47:03;;;;;;;7.10;4.60;;;;;;;;;;5029902;28;20551;-64
2021/04/08 04:49:29;;;;;;;7.67;4.53;;;;;;;;;;5032216;28;20823;-64
2021/04/08 04:51:56;;;;;;;10.07;5.23;;;;;;;;;;5032490;28;20587;-66
2021/04/08 04:54:23;;;;;;;8.50;4.83;;;;;;;;;;5031077;28;20449;-65
2021/04/08 04:56:49;;;;;;;15.70;5.40;;;;;;;;;;5029236;28;21092;-65
2021/04/08 04:59:17;;;;;;;13.70;4.57;;;;;;;;;;5016731;28;20956;-65
2021/04/08 05:01:44;;;;;;;9.50;4.10;;;;;;;;;;5020550;28;20480;-65
2021/04/08 05:04:10;;;;;;;11.70;5.13;;;;;;;;;;5032727;28;20477;-66
2021/04/08 05:06:37;;;;;;;8.87;4.90;;;;;;;;;;5028653;28;20461;-65
2021/04/08 05:09:04;;;;;;;8.30;4.57;;;;;;;;;;5032272;28;21047;-65
2021/04/08 05:11:31;;;;;;;10.43;4.40;;;;;;;;;;5022399;28;20573;-65
2021/04/08 05:13:57;;;;;;;10.73;5.40;;;;;;;;;;5033322;28;20444;-65
2021/04/08 05:16:25;;;;;;;9.40;4.70;;;;;;;;;;5027556;28;20466;-65
2021/04/08 05:18:51;;;;;;;7.70;4.83;;;;;;;;;;5013638;28;20549;-65
2021/04/08 05:21:18;;;;;;;10.70;5.00;;;;;;;;;;5022277;28;20516;-65
2021/04/08 05:23:45;;;;;;;10.17;4.40;;;;;;;;;;5028452;28;20583;-67
2021/04/08 05:26:11;;;;;;;9.43;4.90;;;;;;;;;;5028745;28;20963;-65
2021/04/08 05:28:38;;;;;;;11.23;5.00;;;;;;;;;;5029616;28;20560;-65
2021/04/08 05:31:05;;;;;;;9.67;4.87;;;;;;;;;;5026780;28;20492;-64
2021/04/08 05:33:32;;;;;;;8.30;4.60;;;;;;;;;;5026372;28;20450;-64
2021/04/08 05:35:59;;;;;;;11.87;5.60;;;;;;;;;;5023341;28;20527;-64
2021/04/08 05:38:25;;;;;;;8.07;3.80;;;;;;;;;;5034705;28;20940;-65
2021/04/08 05:40:52;;;;;;;11.03;4.80;;;;;;;;;;5027187;28;20542;-65
2021/04/08 05:43:19;;;;;;;8.53;4.60;;;;;;;;;;5026645;28;20563;-64
2021/04/08 05:45:46;;;;;;;11.03;5.10;;;;;;;;;;5029294;28;20492;-65
2021/04/08 05:48:12;;;;;;;10.03;4.60;;;;;;;;;;5014897;28;20462;-64
2021/04/08 05:50:40;;;;;;;8.73;2.70;;;;;;;;;;5024037;28;20511;-65
2021/04/08 05:53:06;;;;;;;6.03;3.00;;;;;;;;;;5028905;28;20559;-68
2021/04/08 05:55:33;;;;;;;5.00;2.80;;;;;;;;;;5026071;28;20459;-68
2021/04/08 05:58:00;;;;;;;4.90;2.80;;;;;;;;;;5032538;28;20842;-67
2021/04/08 06:00:27;;;;;;;7.10;2.50;;;;;;;;;;5025044;28;20565;-67
2021/04/08 06:02:54;;;;;;;6.67;2.37;;;;;;;;;;5012837;28;20457;-67
2021/04/08 06:05:21;;;;;;;5.43;2.20;;;;;;;;;;5020817;28;21013;-67
2021/04/08 06:07:49;;;;;;;3.67;2.00;;;;;;;;;;5013220;28;20449;-68
2021/04/08 06:10:16;;;;;;;5.60;2.10;;;;;;;;;;5027085;28;20492;-68
2021/04/08 06:12:43;;;;;;;6.00;1.77;;;;;;;;;;5019921;28;20556;-67
2021/04/08 06:15:10;;;;;;;5.17;2.60;;;;;;;;;;5028560;28;20465;-67
2021/04/08 06:17:36;;;;;;;3.70;1.77;;;;;;;;;;5028889;28;20515;-68
2021/04/08 06:20:03;;;;;;;4.90;2.40;;;;;;;;;;5013107;28;20461;-67
2021/04/08 06:22:30;;;;;;;4.17;1.93;;;;;;;;;;5014480;28;20509;-67
2021/04/08 06:24:58;;;;;;;3.60;1.77;;;;;;;;;;5017776;28;20519;-68
2021/04/08 06:27:24;;;;;;;4.57;1.73;;;;;;;;;;5019356;28;20528;-68
2021/04/08 06:29:51;;;;;;;3.40;1.50;;;;;;;;;;5026950;28;21035;-68
2021/04/08 06:32:17;;;;;;;4.20;1.30;;;;;;;;;;5032599;28;20488;-68
2021/04/08 06:34:44;;;;;;;2.87;1.47;;;;;;;;;;5028130;28;20457;-67
2021/04/08 06:37:11;;;;;;;3.57;1.67;;;;;;;;;;5015676;28;20446;-67
2021/04/08 06:39:38;;;;;;;4.30;1.80;;;;;;;;;;5032636;28;20465;-68
2021/04/08 06:42:05;;;;;;;2.77;1.50;;;;;;;;;;5025627;28;20498;-67
2021/04/08 06:44:33;;;;;;;4.07;1.90;;;;;;;;;;5024222;28;20490;-66
2021/04/08 06:47:01;;;;;;;4.90;1.83;;;;;;;;;;5028124;28;20472;-68
2021/04/08 06:49:33;;;;;;;6.17;2.63;;;;;;;;;;5024096;28;20509;-65
2021/04/08 06:52:00;;;;;;;7.60;3.33;;;;;;;;;;5024162;28;20489;-62
2021/04/08 06:54:28;;;;;;;9.17;3.40;;;;;;;;;;5030722;28;20488;-62
2021/04/08 06:56:54;;;;;;;11.17;4.13;;;;;;;;;;5029593;28;20472;-62
2021/04/08 06:59:22;;;;;;;7.60;3.90;;;;;;;;;;5030973;28;20906;-62
2021/04/08 07:01:49;;;;;;;9.03;4.50;;;;;;;;;;5031420;28;20508;-62
2021/04/08 07:04:16;;;;;;;6.83;4.00;;;;;;;;;;5016821;28;20485;-64
2021/04/08 07:06:43;;;;;;;10.90;3.73;;;;;;;;;;5022470;28;20533;-61
2021/04/08 07:09:10;;;;;;;6.70;3.17;;;;;;;;;;5049145;28;20472;-62
2021/04/08 07:11:39;;;;;;;7.27;4.00;;;;;;;;;;5040559;28;20461;-62
2021/04/08 07:14:06;;;;;;;6.20;3.13;;;;;;;;;;5049062;28;20464;-62
2021/04/08 07:16:34;;;;;;;6.27;4.20;;;;;;;;;;5045422;28;20527;-64
2021/04/08 07:19:00;;;;;;;8.73;5.13;;;;;;;;;;5039639;28;20452;-64
2021/04/08 07:21:28;;;;;;;10.13;5.23;;;;;;;;;;5035327;28;20585;-64
2021/04/08 07:24:08;;;;;;;6.70;4.70;;;;;;;;;;5033490;28;20512;-64
2021/04/08 07:26:49;;;;;;;8.63;4.70;;;;;;;;;;5015903;28;20552;-62
2021/04/08 07:29:16;;;;;;;13.13;4.67;;;;;;;;;;5025037;28;20534;-62
2021/04/08 07:31:43;;;;;;;9.10;4.67;;;;;;;;;;5019792;28;20525;-62
2021/04/08 07:34:10;;;;;;;6.70;4.70;;;;;;;;;;5020815;28;20926;-62
2021/04/08 07:36:38;;;;;;;7.93;5.00;;;;;;;;;;5032934;28;20543;-61
2021/04/08 07:39:05;;;;;;;10.60;5.03;;;;;;;;;;5029553;28;20472;-62
2021/04/08 07:41:33;;;;;;;7.67;5.10;;;;;;;;;;5029292;28;20576;-61
2021/04/08 07:44:00;;;;;;;11.80;5.13;;;;;;;;;;5014735;28;21204;-61
2021/04/08 07:46:31;;;;;;;9.60;4.17;;;;;;;;;;5027379;28;20469;-62
2021/04/08 07:48:58;;;;;;;10.10;4.83;;;;;;;;;;5034204;28;20464;-63
2021/04/08 07:51:29;;;;;;;8.77;4.73;;;;;;;;;;5032012;28;20492;-64
2021/04/08 07:54:11;;;;;;;7.40;4.77;;;;;;;;;;5034387;28;20453;-63
2021/04/08 07:56:38;;;;;;;7.37;5.07;;;;;;;;;;5032624;28;20543;-63
2021/04/08 07:59:24;;;;;;;6.80;4.67;;;;;;;;;;5034296;28;20471;-63
2021/04/08 08:01:52;;;;;;;13.37;4.80;;;;;;;;;;5033407;28;20484;-63
2021/04/08 08:04:20;;;;;;;8.80;4.53;;;;;;;;;;5033114;28;20567;-64
2021/04/08 08:06:47;;;;;;;8.80;4.17;;;;;;;;;;5017658;28;20477;-63
2021/04/08 08:09:13;;;;;;;7.87;4.60;;;;;;;;;;5023354;28;20540;-63
2021/04/08 08:11:41;;;;;;;8.53;4.47;;;;;;;;;;5033221;28;20492;-65
2021/04/08 08:14:09;;;;;;;8.60;4.47;;;;;;;;;;5030348;28;20544;-70
2021/04/08 08:16:36;;;;;;;9.60;4.30;;;;;;;;;;5033108;28;20508;-63
2021/04/08 08:19:03;;;;;;;5.20;3.83;;;;;;;;;;5032116;28;20542;-63
2021/04/08 08:21:35;;;;;;;8.07;3.83;;;;;;;;;;5032530;28;20504;-64
2021/04/08 08:24:05;;;;;;;6.43;3.70;;;;;;;;;;5019867;28;20482;-69
2021/04/08 08:26:33;;;;;;;10.10;4.20;;;;;;;;;;5031295;28;20555;-69
2021/04/08 08:29:02;;;;;;;6.30;4.33;;;;;;;;;;5032727;28;20563;-65
2021/04/08 08:31:39;;;;;;;5.53;3.83;;;;;;;;;;5014832;28;20944;-67
2021/04/08 08:34:08;;;;;;;8.33;4.40;;;;;;;;;;5031852;28;20894;-66
2021/04/08 08:36:36;;;;;;;14.20;4.63;;;;;;;;;;5032159;28;20818;-65
2021/04/08 08:39:05;;;;;;;10.07;4.47;;;;;;;;;;5033026;28;20457;-65
2021/04/08 08:41:31;;;;;;;5.90;4.20;;;;;;;;;;5034540;28;20555;-65
2021/04/08 08:43:58;;;;;;;5.73;4.23;;;;;;;;;;5028772;28;20531;-65
2021/04/08 08:46:27;;;;;;;10.47;4.20;;;;;;;;;;5033689;28;20551;-66
2021/04/08 08:48:54;;;;;;;7.53;4.40;;;;;;;;;;5028870;28;20924;-67
2021/04/08 08:51:21;;;;;;;7.10;3.90;;;;;;;;;;5034034;28;20778;-66
2021/04/08 08:53:49;;;;;;;8.90;4.07;;;;;;;;;;5026909;28;20481;-67
2021/04/08 08:56:16;;;;;;;9.13;5.37;;;;;;;;;;5033141;28;20532;-66
2021/04/08 08:58:43;;;;;;;7.87;4.80;;;;;;;;;;5018107;28;20968;-66
2021/04/08 09:01:09;;;;;;;5.43;4.50;;;;;;;;;;5013922;28;20461;-67
2021/04/08 09:03:36;;;;;;;8.70;5.10;;;;;;;;;;5020567;28;20442;-68
2021/04/08 09:06:06;;;;;;;7.57;4.20;;;;;;;;;;5015072;28;20576;-67
2021/04/08 09:08:34;;;;;;;6.60;4.20;;;;;;;;;;5022012;28;20462;-67
2021/04/08 09:11:01;;;;;;;6.77;4.33;;;;;;;;;;5014764;28;20477;-67
2021/04/08 09:13:29;;;;;;;6.60;3.73;;;;;;;;;;5024837;28;21047;-65
2021/04/08 09:15:58;;;;;;;5.93;3.83;;;;;;;;;;5019653;28;20449;-66
2021/04/08 09:18:25;;;;;;;6.10;3.63;;;;;;;;;;5016713;28;20493;-64
2021/04/08 09:20:53;;;;;;;5.93;3.43;;;;;;;;;;5024011;28;20469;-65
2021/04/08 09:23:21;;;;;;;6.80;3.43;;;;;;;;;;5013169;28;20560;-64
2021/04/08 09:25:51;;;;;;;5.60;2.90;;;;;;;;;;5030337;28;20994;-64
2021/04/08 09:28:19;;;;;;;4.73;3.70;;;;;;;;;;5029722;28;20460;-66
2021/04/08 09:30:53;;;;;;;4.40;3.10;;;;;;;;;;5032085;28;21036;-65
2021/04/08 09:33:20;;;;;;;7.67;3.33;;;;;;;;;;5030269;28;20468;-67
2021/04/08 09:35:47;;;;;;;3.87;2.83;;;;;;;;;;5032623;28;20457;-72
2021/04/08 09:38:14;;;;;;;7.53;3.00;;;;;;;;;;5032470;28;20548;-65
2021/04/08 09:40:51;;;;;;;3.70;2.67;;;;;;;;;;5032078;28;21015;-67
2021/04/08 09:43:20;;;;;;;5.13;2.60;;;;;;;;;;5019490;28;20464;-70
2021/04/08 09:45:49;;;;;;;5.30;2.67;;;;;;;;;;5018670;28;20510;-65
2021/04/08 09:48:17;;;;;;;4.30;2.70;;;;;;;;;;5024542;28;21047;-67
2021/04/08 09:50:45;;;;;;;8.00;3.50;;;;;;;;;;5021982;28;20543;-68
2021/04/08 09:53:12;;;;;;;4.43;2.63;;;;;;;;;;5027132;28;20460;-74
2021/04/08 09:55:38;;;;;;;7.00;3.23;;;;;;;;;;5030335;28;20440;-70
2021/04/08 09:58:06;;;;;;;8.33;3.00;;;;;;;;;;5019384;28;20805;-66
2021/04/08 10:00:33;;;;;;;6.43;3.63;;;;;;;;;;5024786;28;20530;-72
2021/04/08 10:03:04;;;;;;;4.43;2.47;;;;;;;;;;5029749;28;20482;-67
2021/04/08 10:05:32;;;;;;;5.07;3.27;;;;;;;;;;5018254;28;21010;-65
2021/04/08 10:07:59;;;;;;;4.43;2.60;;;;;;;;;;5021549;28;20839;-67
2021/04/08 10:10:41;;;;;;;5.53;3.00;;;;;;;;;;5018847;28;20495;-63
2021/04/08 10:13:18;;;;;;;4.43;3.10;;;;;;;;;;5024034;28;20461;-65
2021/04/08 10:15:46;;;;;;;3.00;2.67;;;;;;;;;;5012223;28;20545;-66
2021/04/08 10:18:15;;;;;;;3.23;2.53;;;;;;;;;;5013785;28;20460;-65
2021/04/08 10:20:42;;;;;;;3.57;3.10;;;;;;;;;;5019028;28;20576;-65
2021/04/08 10:23:09;;;;;;;3.77;2.73;;;;;;;;;;5031087;28;20935;-65
2021/04/08 10:25:35;;;;;;;4.63;3.03;;;;;;;;;;5031581;28;20894;-63
2021/04/08 10:28:02;;;;;;;3.53;2.40;;;;;;;;;;5030184;28;21330;-65
2021/04/08 10:30:34;;;;;;;5.13;2.70;;;;;;;;;;5031648;28;20496;-63
2021/04/08 10:33:02;;;;;;;2.73;2.13;;;;;;;;;;5015621;28;20527;-64
2021/04/08 10:35:29;;;;;;;2.87;2.57;;;;;;;;;;5013410;28;20509;-67
2021/04/08 10:38:03;;;;;;;2.73;2.50;;;;;;;;;;5022653;28;21011;-67
2021/04/08 10:40:30;;;;;;;3.20;2.40;;;;;;;;;;5012486;28;20485;-67
2021/04/08 10:43:09;;;;;;;2.70;2.40;;;;;;;;;;5020188;28;20568;-68
2021/04/08 10:45:36;;;;;;;2.20;2.00;;;;;;;;;;5031389;28;20484;-68
2021/04/08 10:48:06;;;;;;;3.07;2.40;;;;;;;;;;5026459;28;20964;-64
2021/04/08 10:50:33;;;;;;;2.80;2.13;;;;;;;;;;5023512;28;20496;-65
2021/04/08 10:53:00;;;;;;;2.43;1.90;;;;;;;;;;5012959;28;20928;-64
2021/04/08 10:55:27;;;;;;;4.67;2.50;;;;;;;;;;5015456;28;20452;-64
2021/04/08 10:57:54;;;;;;;3.57;2.27;;;;;;;;;;5028045;28;20564;-64
2021/04/08 11:00:21;;;;;;;3.33;2.47;;;;;;;;;;5018617;28;20473;-64
2021/04/08 11:02:48;;;;;;;3.80;2.70;;;;;;;;;;5023982;28;20453;-64
2021/04/08 11:05:19;;;;;;;3.63;3.00;;;;;;;;;;5017553;28;20525;-63
2021/04/08 11:07:48;;;;;;;3.57;2.40;;;;;;;;;;5020140;28;20452;-64
2021/04/08 11:10:16;;;;;;;2.53;2.30;;;;;;;;;;5019169;28;20531;-67
2021/04/08 11:12:43;;;;;;;2.57;2.27;;;;;;;;;;5026559;28;20490;-65
2021/04/08 11:15:11;;;;;;;3.50;2.30;;;;;;;;;;5017877;28;20528;-65
2021/04/08 11:17:41;;;;;;;3.90;2.70;;;;;;;;;;5017123;28;20454;-63
2021/04/08 11:20:08;;;;;;;3.20;2.30;;;;;;;;;;5028106;28;20495;-68
2021/04/08 11:22:36;;;;;;;4.40;2.47;;;;;;;;;;5015732;28;20450;-67
2021/04/08 11:25:08;;;;;;;3.33;2.70;;;;;;;;;;5016166;28;21000;-65
2021/04/08 11:27:39;;;;;;;3.23;2.57;;;;;;;;;;5011782;28;20477;-65
2021/04/08 11:30:07;;;;;;;4.07;2.27;;;;;;;;;;5017830;28;20916;-65
2021/04/08 11:32:43;;;;;;;4.43;2.33;;;;;;;;;;5030653;28;20547;-64
2021/04/08 11:35:22;;;;;;;3.20;2.60;;;;;;;;;;5029769;28;20535;-62
2021/04/08 11:37:49;;;;;;;2.43;2.23;;;;;;;;;;5012942;28;20473;-65
2021/04/08 11:40:20;;;;;;;3.87;2.63;;;;;;;;;;5019532;28;20476;-65
2021/04/08 11:42:47;;;;;;;3.70;2.50;;;;;;;;;;5024099;28;20994;-71
2021/04/08 11:45:20;;;;;;;3.30;2.63;;;;;;;;;;5018908;28;20491;-66
2021/04/08 11:47:54;;;;;;;4.07;3.13;;;;;;;;;;5030448;28;20484;-68
2021/04/08 11:50:21;;;;;;;5.23;3.00;;;;;;;;;;5031140;28;20511;-69
2021/04/08 11:53:01;;;;;;;4.33;3.43;;;;;;;;;;5031119;28;20463;-66
2021/04/08 11:55:34;;;;;;;5.73;3.67;;;;;;;;;;5030178;28;20547;-67
2021/04/08 11:58:01;;;;;;;4.27;3.43;;;;;;;;;;5028719;28;20459;-65
2021/04/08 12:00:28;;;;;;;4.83;3.90;;;;;;;;;;5030110;28;20551;-64
2021/04/08 12:02:54;;;;;;;4.73;4.10;;;;;;;;;;5030391;28;21014;-69
2021/04/08 12:05:22;;;;;;;5.73;3.70;;;;;;;;;;5013952;28;20485;-65
2021/04/08 12:07:49;;;;;;;3.50;3.00;;;;;;;;;;5034248;28;20543;-64
2021/04/08 12:10:24;;;;;;;3.93;3.50;;;;;;;;;;5034325;28;20504;-64
2021/04/08 12:12:54;;;;;;;4.67;3.37;;;;;;;;;;5022142;28;20483;-65
2021/04/08 12:15:31;;;;;;;3.90;3.53;;;;;;;;;;5033507;28;20454;-64
2021/04/08 12:17:58;;;;;;;6.67;3.60;;;;;;;;;;5017805;28;20497;-65
2021/04/08 12:20:25;;;;;;;4.47;3.20;;;;;;;;;;5021592;28;20489;-65
2021/04/08 12:22:53;;;;;;;4.90;3.37;;;;;;;;;;5037603;28;20527;-67
2021/04/08 12:25:21;;;;;;;6.60;3.17;;;;;;;;;;5033280;28;21950;-69
2021/04/08 12:27:48;;;;;;;4.47;3.10;;;;;;;;;;5034607;28;20529;-67
2021/04/08 12:30:16;;;;;;;4.87;3.07;;;;;;;;;;5032157;28;20967;-67
2021/04/08 12:32:42;;;;;;;3.33;3.00;;;;;;;;;;5023473;28;20465;-64
2021/04/08 12:35:10;;;;;;;5.43;3.60;;;;;;;;;;5014500;28;20452;-68
2021/04/08 12:37:37;;;;;;;4.63;3.50;;;;;;;;;;5014112;28;20859;-64
2021/04/08 12:40:04;;;;;;;6.27;3.30;;;;;;;;;;5025338;28;20463;-65
2021/04/08 12:42:30;;;;;;;4.83;3.33;;;;;;;;;;5015050;28;20462;-65
2021/04/08 12:44:58;;;;;;;6.77;3.77;;;;;;;;;;5019697;28;20476;-66
2021/04/08 12:47:26;;;;;;;6.20;4.40;;;;;;;;;;5015633;28;20963;-68
2021/04/08 12:49:53;;;;;;;4.60;3.63;;;;;;;;;;5021741;28;20461;-65
2021/04/08 12:52:19;;;;;;;5.83;3.70;;;;;;;;;;5023640;28;20572;-65
2021/04/08 12:54:46;;;;;;;5.27;3.50;;;;;;;;;;5015625;28;20998;-65
2021/04/08 12:57:13;;;;;;;5.23;3.33;;;;;;;;;;5029739;28;20475;-67
2021/04/08 12:59:39;;;;;;;7.20;3.60;;;;;;;;;;5027406;28;20535;-65
2021/04/08 13:02:07;;;;;;;4.83;3.20;;;;;;;;;;5033515;28;20548;-65
2021/04/08 13:04:34;;;;;;;6.43;3.50;;;;;;;;;;5025100;28;20491;-65
2021/04/08 13:07:01;;;;;;;4.60;3.00;;;;;;;;;;5017981;28;20536;-66
2021/04/08 13:09:27;;;;;;;3.30;3.00;;;;;;;;;;5018087;28;20940;-68
2021/04/08 13:11:54;;;;;;;5.60;3.33;;;;;;;;;;5032680;28;20473;-69
2021/04/08 13:14:21;;;;;;;4.43;3.10;;;;;;;;;;5033049;28;20452;-69
2021/04/08 13:16:47;;;;;;;5.63;3.57;;;;;;;;;;5032678;28;20448;-68
2021/04/08 13:19:15;;;;;;;5.07;2.73;;;;;;;;;;5032103;28;20526;-64
2021/04/08 13:21:42;;;;;;;5.70;3.20;;;;;;;;;;5019939;28;20473;-67
2021/04/08 13:24:09;;;;;;;3.73;3.23;;;;;;;;;;5022785;28;20534;-65
2021/04/08 13:26:35;;;;;;;5.57;3.07;;;;;;;;;;5028956;28;20533;-67
2021/04/08 13:29:02;;;;;;;4.67;3.23;;;;;;;;;;5021185;28;20514;-66
2021/04/08 13:31:28;;;;;;;2.57;2.37;;;;;;;;;;5031421;28;20508;-65
2021/04/08 13:33:55;;;;;;;4.50;3.13;;;;;;;;;;5019257;28;20446;-69
2021/04/08 13:36:22;;;;;;;5.83;3.20;;;;;;;;;;5015324;28;20456;-63
2021/04/08 13:38:49;;;;;;;5.07;3.10;;;;;;;;;;5024937;28;20531;-63
2021/04/08 13:41:16;;;;;;;5.60;3.10;;;;;;;;;;5032659;28;20555;-63
2021/04/08 13:43:42;;;;;;;3.20;2.53;;;;;;;;;;5020944;28;20596;-65
2021/04/08 13:46:09;;;;;;;4.23;2.77;;;;;;;;;;5019655;28;20472;-68
2021/04/08 13:48:36;;;;;;;5.07;2.60;;;;;;;;;;5022769;28;20462;-65
2021/04/08 13:51:02;;;;;;;4.33;2.93;;;;;;;;;;5018924;28;20567;-68
2021/04/08 13:53:31;;;;;;;5.57;2.90;;;;;;;;;;5023021;28;20470;-68
2021/04/08 13:55:58;;;;;;;4.50;3.23;;;;;;;;;;5037344;28;20475;-67
2021/04/08 13:58:24;;;;;;;4.10;3.30;;;;;;;;;;5030808;28;20460;-68
2021/04/08 14:00:51;;;;;;;5.07;3.00;;;;;;;;;;5032389;28;20518;-67
2021/04/08 14:03:18;;;;;;;5.50;2.77;;;;;;;;;;5027345;28;20449;-68
2021/04/08 14:05:44;;;;;;;3.40;2.93;;;;;;;;;;5032460;28;20483;-68
2021/04/08 14:08:11;;;;;;;4.23;3.37;;;;;;;;;;5018969;28;20859;-67
2021/04/08 14:10:38;;;;;;;4.40;3.27;;;;;;;;;;5031931;28;20481;-70
2021/04/08 14:13:05;;;;;;;3.90;3.03;;;;;;;;;;5030446;28;20535;-69
2021/04/08 14:15:32;;;;;;;3.40;2.77;;;;;;;;;;5032219;28;20441;-70
2021/04/08 14:17:59;;;;;;;3.20;2.90;;;;;;;;;;5026149;28;20540;-70
2021/04/08 14:20:25;;;;;;;5.20;3.27;;;;;;;;;;5012795;28;21035;-64
2021/04/08 14:22:52;;;;;;;7.50;3.17;;;;;;;;;;5012892;28;20869;-69
2021/04/08 14:25:20;;;;;;;5.20;3.60;;;;;;;;;;5011947;28;20576;-69
2021/04/08 14:27:48;;;;;;;6.07;3.40;;;;;;;;;;5012290;28;20453;-68
2021/04/08 14:30:15;;;;;;;5.93;3.27;;;;;;;;;;5031811;28;20481;-68
2021/04/08 14:32:42;;;;;;;4.70;3.50;;;;;;;;;;5032544;28;20437;-69
2021/04/08 14:35:10;;;;;;;5.90;3.97;;;;;;;;;;5015231;28;20450;-64
2021/04/08 14:37:37;;;;;;;4.27;3.83;;;;;;;;;;5029453;28;20468;-69
2021/04/08 14:40:04;;;;;;;3.93;3.60;;;;;;;;;;5032843;28;20525;-66
2021/04/08 14:42:30;;;;;;;6.07;3.33;;;;;;;;;;5032690;28;20448;-67
2021/04/08 14:44:58;;;;;;;6.13;3.80;;;;;;;;;;5015507;28;20580;-72